createdAt,value
2019-01-21T00:01:53.882Z,84.25
2019-01-21T00:04:25.261Z,84.38
2019-01-21T00:06:56.656Z,84.62
2019-01-21T00:09:28.129Z,84.62
2019-01-21T00:11:59.401Z,84.53
2019-01-21T00:14:31.164Z,84.40
2019-01-21T00:17:02.561Z,84.47
2019-01-21T00:19:33.941Z,84.28
2019-01-21T00:22:05.772Z,84.20
2019-01-21T00:24:37.276Z,84.74
2019-01-21T00:27:08.575Z,84.58
2019-01-21T00:29:39.944Z,84.56
2019-01-21T00:32:11.398Z,84.18
2019-01-21T00:34:42.842Z,84.24
2019-01-21T00:37:14.333Z,83.98
2019-01-21T00:39:45.777Z,83.85
2019-01-21T00:42:17.262Z,83.77
2019-01-21T00:44:48.636Z,83.63
2019-01-21T00:47:20.168Z,83.56
2019-01-21T00:49:51.863Z,83.86
2019-01-21T00:52:23.290Z,84.33
2019-01-21T00:54:54.966Z,84.71
2019-01-21T00:57:26.279Z,84.83
2019-01-21T00:59:57.767Z,84.99
2019-01-21T01:02:29.198Z,84.78
2019-01-21T01:05:00.906Z,84.56
2019-01-21T01:07:32.607Z,84.58
2019-01-21T01:10:04.072Z,85.05
2019-01-21T01:12:35.531Z,84.94
2019-01-21T01:15:08.224Z,84.75
2019-01-21T01:17:39.779Z,84.53
2019-01-21T01:20:14.509Z,85.24
2019-01-21T01:22:46.150Z,85.39
2019-01-21T01:25:17.757Z,85.41
2019-01-21T01:27:50.304Z,85.59
2019-01-21T01:30:21.931Z,85.59
2019-01-21T01:32:53.451Z,85.35
2019-01-21T01:35:25.173Z,85.27
2019-01-21T01:37:56.560Z,85.07
2019-01-21T01:40:28.280Z,84.98
2019-01-21T01:43:00.029Z,84.70
2019-01-21T01:45:31.507Z,84.48
2019-01-21T01:48:03.891Z,84.63
2019-01-21T01:50:35.460Z,84.42
2019-01-21T01:53:07.899Z,84.22
2019-01-21T01:55:39.261Z,84.35
2019-01-21T01:58:11.030Z,84.35
2019-01-21T02:00:42.436Z,84.25
2019-01-21T02:03:13.916Z,84.72
2019-01-21T02:05:45.264Z,85.05
2019-01-21T02:08:17.107Z,84.71
2019-01-21T02:10:48.644Z,84.64
2019-01-21T02:13:20.290Z,84.58
2019-01-21T02:15:51.953Z,84.83
2019-01-21T02:18:23.345Z,84.56
2019-01-21T02:20:58.149Z,83.96
2019-01-21T02:23:33.921Z,84.02
2019-01-21T02:26:10.002Z,84.45
2019-01-21T02:29:01.151Z,84.52
2019-01-21T02:32:05.875Z,84.36
2019-01-21T02:35:22.663Z,84.00
2019-01-21T02:38:33.751Z,83.95
2019-01-21T02:41:28.215Z,84.59
2019-01-21T02:44:51.696Z,85.12
2019-01-21T02:48:00.003Z,85.29
2019-01-21T02:50:56.776Z,85.27
2019-01-21T02:54:04.451Z,85.41
2019-01-21T02:57:16.287Z,85.01
2019-01-21T03:00:07.663Z,85.42
2019-01-21T03:03:30.627Z,85.13
2019-01-21T03:06:42.327Z,84.92
2019-01-21T03:09:57.797Z,84.66
2019-01-21T03:13:16.480Z,84.28
2019-01-21T03:16:37.627Z,84.47
2019-01-21T03:19:58.273Z,84.55
2019-01-21T03:23:25.377Z,84.94
2019-01-21T03:26:30.470Z,85.00
2019-01-21T03:29:46.530Z,84.67
2019-01-21T03:33:13.546Z,84.22
2019-01-21T03:36:05.660Z,84.13
2019-01-21T03:39:19.300Z,83.94
2019-01-21T03:42:04.713Z,83.47
2019-01-21T03:45:25.920Z,83.37
2019-01-21T03:48:31.536Z,83.32
2019-01-21T03:51:26.610Z,83.40
2019-01-21T03:54:15.844Z,83.04
2019-01-21T03:56:55.134Z,83.09
2019-01-21T03:59:43.258Z,82.90
2019-01-21T04:03:06.956Z,82.80
2019-01-21T04:06:06.724Z,82.76
2019-01-21T04:09:22.568Z,82.40
2019-01-21T04:12:15.821Z,82.15
2019-01-21T04:15:32.680Z,82.58
2019-01-21T04:18:46.510Z,82.56
2019-01-21T04:22:00.203Z,82.43
2019-01-21T04:25:24.014Z,82.56
2019-01-21T04:28:31.702Z,82.82
2019-01-21T04:31:42.854Z,83.18
2019-01-21T04:34:39.479Z,82.74
2019-01-21T04:37:42.156Z,82.65
2019-01-21T04:40:47.577Z,82.46
2019-01-21T04:43:40.738Z,82.83
2019-01-21T04:47:11.984Z,82.31
2019-01-21T04:50:30.111Z,82.42
2019-01-21T04:53:39.718Z,82.99
2019-01-21T04:56:47.151Z,83.44
2019-01-21T04:59:44.563Z,84.01
2019-01-21T05:03:08.837Z,83.94
2019-01-21T05:09:52.180Z,83.39
2019-01-21T05:12:45.917Z,83.23
2019-01-21T05:15:54.023Z,83.72
2019-01-21T05:18:52.943Z,84.42
2019-01-21T05:22:06.255Z,84.45
2019-01-21T05:25:18.352Z,84.22
2019-01-21T05:28:26.083Z,84.55
2019-01-21T05:31:43.092Z,84.41
2019-01-21T05:35:13.325Z,84.71
2019-01-21T05:38:22.259Z,85.12
2019-01-21T05:41:25.686Z,85.07
2019-01-21T05:44:39.280Z,85.31
2019-01-21T05:47:56.118Z,85.34
2019-01-21T05:51:18.858Z,85.15
2019-01-21T05:54:21.156Z,85.32
2019-01-21T05:57:39.085Z,84.97
2019-01-21T06:00:44.656Z,85.16
2019-01-21T06:03:36.299Z,85.30
2019-01-21T06:06:29.723Z,85.31
2019-01-21T06:09:28.530Z,84.84
2019-01-21T06:12:28.296Z,84.33
2019-01-21T06:15:21.944Z,84.47
2019-01-21T06:18:33.606Z,84.54
2019-01-21T06:21:39.586Z,85.33
2019-01-21T06:25:03.843Z,85.36
2019-01-21T06:28:15.311Z,85.39
2019-01-21T06:31:42.415Z,85.39
2019-01-21T06:34:55.416Z,84.96
2019-01-21T06:38:10.278Z,85.03
2019-01-21T06:41:28.096Z,85.84
2019-01-21T06:44:31.617Z,86.50
2019-01-21T06:47:29.319Z,86.41
2019-01-21T06:50:10.606Z,85.79
2019-01-21T06:53:17.180Z,86.61
2019-01-21T06:56:30.873Z,86.09
2019-01-21T06:59:34.786Z,85.83
2019-01-21T07:02:41.558Z,85.92
2019-01-21T07:05:47.767Z,85.89
2019-01-21T07:09:08.337Z,86.32
2019-01-21T07:12:16.911Z,86.84
2019-01-21T07:15:28.785Z,86.72
2019-01-21T07:18:15.055Z,86.28
2019-01-21T07:21:07.485Z,86.36
2019-01-21T07:24:15.530Z,85.86
2019-01-21T07:27:08.340Z,84.85
2019-01-21T07:30:05.924Z,85.27
2019-01-21T07:33:02.339Z,85.81
2019-01-21T07:36:13.115Z,85.96
2019-01-21T07:39:14.778Z,86.14
2019-01-21T07:42:31.347Z,86.22
2019-01-21T07:45:14.671Z,86.07
2019-01-21T07:48:19.462Z,86.31
2019-01-21T07:51:21.099Z,86.88
2019-01-21T07:54:32.479Z,86.67
2019-01-21T07:57:43.379Z,86.56
2019-01-21T08:00:58.534Z,86.30
2019-01-21T08:04:06.370Z,86.38
2019-01-21T08:07:14.866Z,86.40
2019-01-21T08:10:01.572Z,85.92
2019-01-21T08:13:06.623Z,85.75
2019-01-21T08:16:08.565Z,86.66
2019-01-21T08:19:12.081Z,86.94
2019-01-21T08:22:14.756Z,86.12
2019-01-21T08:25:18.875Z,85.78
2019-01-21T08:28:19.039Z,85.72
2019-01-21T08:31:33.624Z,85.38
2019-01-21T08:34:42.248Z,86.11
2019-01-21T08:37:48.833Z,85.70
2019-01-21T08:40:59.430Z,85.87
2019-01-21T08:43:49.123Z,85.49
2019-01-21T08:46:33.454Z,85.31
2019-01-21T08:49:50.397Z,85.89
2019-01-21T08:52:34.540Z,85.93
2019-01-21T08:55:45.505Z,85.64
2019-01-21T08:58:51.563Z,85.48
2019-01-21T09:02:10.798Z,84.78
2019-01-21T09:05:08.783Z,84.85
2019-01-21T09:08:08.513Z,84.66
2019-01-21T09:11:29.349Z,84.06
2019-01-21T09:14:31.426Z,83.17
2019-01-21T09:17:42.638Z,83.02
2019-01-21T09:20:59.700Z,82.90
2019-01-21T09:23:57.490Z,82.54
2019-01-21T09:26:59.831Z,83.01
2019-01-21T09:30:13.677Z,82.92
2019-01-21T09:33:06.749Z,83.02
2019-01-21T09:36:16.706Z,83.43
2019-01-21T09:39:30.163Z,83.03
2019-01-21T09:42:32.559Z,82.54
2019-01-21T09:45:15.264Z,83.66
2019-01-21T09:47:44.443Z,82.04
2019-01-21T09:50:15.932Z,81.74
2019-01-21T09:52:47.439Z,82.03
2019-01-21T09:55:19.667Z,81.75
2019-01-21T09:57:57.030Z,81.63
2019-01-21T10:00:28.628Z,80.74
2019-01-21T10:03:01.020Z,80.92
2019-01-21T10:05:33.297Z,80.62
2019-01-21T10:08:30.821Z,80.38
2019-01-21T10:11:38.754Z,80.25
2019-01-21T10:14:54.958Z,79.38
2019-01-21T10:18:28.015Z,81.56
2019-01-21T10:21:30.732Z,80.25
2019-01-21T10:24:43.251Z,79.54
2019-01-21T10:27:43.290Z,78.42
2019-01-21T10:30:30.661Z,78.50
2019-01-21T10:33:54.688Z,78.03
2019-01-21T10:37:00.981Z,78.21
2019-01-21T10:40:08.951Z,78.69
2019-01-21T10:43:02.532Z,79.96
2019-01-21T10:46:19.112Z,79.85
2019-01-21T10:49:37.737Z,79.05
2019-01-21T10:52:30.389Z,80.07
2019-01-21T10:55:27.799Z,80.05
2019-01-21T10:58:36.195Z,80.86
2019-01-21T11:01:32.337Z,80.55
2019-01-21T11:04:32.847Z,79.07
2019-01-21T11:07:31.305Z,79.43
2019-01-21T11:10:24.630Z,79.30
2019-01-21T11:13:39.600Z,79.11
2019-01-21T11:16:20.343Z,79.00
2019-01-21T11:19:38.101Z,79.39
2019-01-21T11:22:42.076Z,79.44
2019-01-21T11:25:55.787Z,79.85
2019-01-21T11:28:56.694Z,80.42
2019-01-21T11:32:08.160Z,79.59
2019-01-21T11:35:00.647Z,79.99
2019-01-21T11:38:10.876Z,79.90
2019-01-21T11:41:23.093Z,80.27
2019-01-21T11:44:30.049Z,80.06
2019-01-21T11:47:29.457Z,79.82
2019-01-21T11:50:31.508Z,79.62
2019-01-21T11:53:26.987Z,80.40
2019-01-21T11:56:12.017Z,79.87
2019-01-21T11:59:34.565Z,80.02
2019-01-21T12:02:47.023Z,79.66
2019-01-21T12:05:28.061Z,80.56
2019-01-21T12:08:31.748Z,79.78
2019-01-21T12:11:33.484Z,80.21
2019-01-21T12:14:45.229Z,80.37
2019-01-21T12:17:40.845Z,80.44
2019-01-21T12:20:21.637Z,80.71
2019-01-21T12:23:28.609Z,80.31
2019-01-21T12:26:49.151Z,80.17
2019-01-21T12:29:43.500Z,80.55
2019-01-21T12:32:59.915Z,81.31
2019-01-21T12:35:53.799Z,81.00
2019-01-21T12:39:06.681Z,82.43
2019-01-21T12:41:58.598Z,83.16
2019-01-21T12:45:13.099Z,82.98
2019-01-21T12:48:40.316Z,82.86
2019-01-21T12:51:46.260Z,82.88
2019-01-21T12:54:58.600Z,82.30
2019-01-21T12:58:19.163Z,81.88
2019-01-21T13:01:17.585Z,81.16
2019-01-21T13:04:16.888Z,80.16
2019-01-21T13:07:37.469Z,79.25
2019-01-21T13:10:39.387Z,79.26
2019-01-21T13:14:00.281Z,79.57
2019-01-21T13:17:15.373Z,80.26
2019-01-21T13:20:23.012Z,79.88
2019-01-21T13:23:20.805Z,79.28
2019-01-21T13:26:47.038Z,79.26
2019-01-21T13:29:48.801Z,79.69
2019-01-21T13:32:45.956Z,79.62
2019-01-21T13:36:09.928Z,79.98
2019-01-21T13:39:27.606Z,80.38
2019-01-21T13:42:32.784Z,79.75
2019-01-21T13:45:31.988Z,79.27
2019-01-21T13:48:30.741Z,79.06
2019-01-21T13:51:38.792Z,79.74
2019-01-21T13:54:50.786Z,78.79
2019-01-21T13:57:53.611Z,80.33
2019-01-21T14:01:16.970Z,81.24
2019-01-21T14:04:26.075Z,80.75
2019-01-21T14:07:53.171Z,80.27
2019-01-21T14:10:49.930Z,79.64
2019-01-21T14:13:55.195Z,80.17
2019-01-21T14:17:06.138Z,80.96
2019-01-21T14:20:23.141Z,81.84
2019-01-21T14:23:29.308Z,81.27
2019-01-21T14:26:43.972Z,81.10
2019-01-21T14:29:33.990Z,80.72
2019-01-21T14:32:38.678Z,80.22
2019-01-21T14:35:24.468Z,80.04
2019-01-21T14:38:35.011Z,80.72
2019-01-21T14:41:40.264Z,80.70
2019-01-21T14:44:58.532Z,80.90
2019-01-21T14:48:06.949Z,81.13
2019-01-21T14:51:24.971Z,81.08
2019-01-21T14:54:33.763Z,82.21
2019-01-21T14:57:49.223Z,82.33
2019-01-21T15:00:51.726Z,82.56
2019-01-21T15:04:09.533Z,82.48
2019-01-21T15:07:01.650Z,82.23
2019-01-21T15:10:18.251Z,81.66
2019-01-21T15:13:14.780Z,81.00
2019-01-21T15:16:23.701Z,80.92
2019-01-21T15:19:32.146Z,80.96
2019-01-21T15:22:41.357Z,80.49
2019-01-21T15:25:49.481Z,80.27
2019-01-21T15:29:11.228Z,80.78
2019-01-21T15:32:08.389Z,80.26
2019-01-21T15:35:34.543Z,80.62
2019-01-21T15:38:31.573Z,81.17
2019-01-21T15:41:50.200Z,81.15
2019-01-21T15:44:33.936Z,81.13
2019-01-21T15:47:44.654Z,81.09
2019-01-21T15:50:48.237Z,80.78
2019-01-21T15:53:34.717Z,80.68
2019-01-21T15:56:54.197Z,80.75
2019-01-21T16:00:30.338Z,80.64
2019-01-21T16:03:16.461Z,80.17
2019-01-21T16:06:40.499Z,80.98
2019-01-21T16:09:34.890Z,80.97
2019-01-21T16:12:51.820Z,81.38
2019-01-21T16:15:54.697Z,80.95
2019-01-21T16:18:36.716Z,80.93
2019-01-21T16:21:47.387Z,80.91
2019-01-21T16:24:58.005Z,80.62
2019-01-21T16:27:54.136Z,80.54
2019-01-21T16:30:48.292Z,80.56
2019-01-21T16:33:55.844Z,80.64
2019-01-21T16:36:58.875Z,80.96
2019-01-21T16:39:43.178Z,80.80
2019-01-21T16:42:15.950Z,79.95
2019-01-21T16:44:48.247Z,79.59
2019-01-21T16:47:19.608Z,79.38
2019-01-21T16:49:51.041Z,79.44
2019-01-21T16:52:22.892Z,79.22
2019-01-21T16:54:54.158Z,79.36
2019-01-21T16:57:25.732Z,78.62
2019-01-21T16:59:57.030Z,78.89
2019-01-21T17:02:28.349Z,78.72
2019-01-21T17:04:59.536Z,79.63
2019-01-21T17:07:31.125Z,79.76
2019-01-21T17:10:02.656Z,80.59
2019-01-21T17:12:35.821Z,80.26
2019-01-21T17:15:09.487Z,80.56
2019-01-21T17:17:42.051Z,80.87
2019-01-21T17:20:16.570Z,80.90
2019-01-21T17:22:47.927Z,80.44
2019-01-21T17:25:19.366Z,80.15
2019-01-21T17:27:50.654Z,80.04
2019-01-21T17:30:22.121Z,80.56
2019-01-21T17:32:53.313Z,80.27
2019-01-21T17:35:24.766Z,80.08
2019-01-21T17:37:55.974Z,80.10
2019-01-21T17:40:27.357Z,80.07
2019-01-21T17:42:58.787Z,80.05
2019-01-21T17:45:30.508Z,79.65
2019-01-21T17:48:02.221Z,79.55
2019-01-21T17:50:33.790Z,79.65
2019-01-21T17:53:05.058Z,79.54
2019-01-21T17:55:36.531Z,79.63
2019-01-21T17:58:07.983Z,79.55
2019-01-21T18:00:39.665Z,79.54
2019-01-21T18:03:11.077Z,79.61
2019-01-21T18:05:43.089Z,79.67
2019-01-21T18:08:16.183Z,80.28
2019-01-21T18:10:48.105Z,80.62
2019-01-21T18:13:20.191Z,80.21
2019-01-21T18:15:52.026Z,80.48
2019-01-21T18:18:23.515Z,80.53
2019-01-21T18:20:54.946Z,81.03
2019-01-21T18:23:26.628Z,80.48
2019-01-21T18:25:58.929Z,80.85
2019-01-21T18:28:30.437Z,81.29
2019-01-21T18:31:01.658Z,81.13
2019-01-21T18:33:32.998Z,81.36
2019-01-21T18:36:04.604Z,81.48
2019-01-21T18:38:36.286Z,81.52
2019-01-21T18:41:07.975Z,81.21
2019-01-21T18:43:39.397Z,80.77
2019-01-21T18:46:11.073Z,80.97
2019-01-21T18:48:42.666Z,81.02
2019-01-21T18:51:14.293Z,81.47
2019-01-21T18:53:45.796Z,81.11
2019-01-21T18:56:17.279Z,80.61
2019-01-21T18:58:48.808Z,80.85
2019-01-21T19:01:20.497Z,80.58
2019-01-21T19:03:51.996Z,80.52
2019-01-21T19:06:23.732Z,80.49
2019-01-21T19:08:55.225Z,80.87
2019-01-21T19:11:26.585Z,80.59
2019-01-21T19:13:59.263Z,80.30
2019-01-21T19:16:31.118Z,80.35
2019-01-21T19:19:03.184Z,80.56
2019-01-21T19:21:34.918Z,80.46
2019-01-21T19:24:06.993Z,81.24
2019-01-21T19:26:38.304Z,81.53
2019-01-21T19:29:09.481Z,82.05
2019-01-21T19:31:40.980Z,82.43
2019-01-21T19:34:12.656Z,82.50
2019-01-21T19:36:44.329Z,82.43
2019-01-21T19:39:16.226Z,82.93
2019-01-21T19:41:47.788Z,82.80
2019-01-21T19:44:19.341Z,82.56
2019-01-21T19:46:50.578Z,82.65
2019-01-21T19:49:22.097Z,82.63
2019-01-21T19:51:53.632Z,82.46
2019-01-21T19:54:24.962Z,82.68
2019-01-21T19:56:56.749Z,82.29
2019-01-21T19:59:27.970Z,82.55
2019-01-21T20:01:59.279Z,82.49
2019-01-21T20:04:30.527Z,82.46
2019-01-21T20:07:02.126Z,82.77
2019-01-21T20:09:33.651Z,83.04
2019-01-21T20:12:04.868Z,82.26
2019-01-21T20:14:36.388Z,82.27
2019-01-21T20:17:07.841Z,82.05
2019-01-21T20:19:39.181Z,81.91
2019-01-21T20:22:10.624Z,81.80
2019-01-21T20:24:41.888Z,82.20
2019-01-21T20:27:13.076Z,82.08
2019-01-21T20:29:44.579Z,81.74
2019-01-21T20:32:15.988Z,81.57
2019-01-21T20:34:47.193Z,81.53
2019-01-21T20:37:18.589Z,81.70
2019-01-21T20:39:49.809Z,82.10
2019-01-21T20:42:21.083Z,81.92
2019-01-21T20:44:52.285Z,81.75
2019-01-21T20:47:23.506Z,82.24
2019-01-21T20:49:54.791Z,82.65
2019-01-21T20:52:26.236Z,82.30
2019-01-21T20:54:57.787Z,82.11
2019-01-21T20:57:29.372Z,82.19
2019-01-21T21:00:00.757Z,82.31
2019-01-21T21:02:32.176Z,82.80
2019-01-21T21:05:03.477Z,82.98
2019-01-21T21:07:34.695Z,83.10
2019-01-21T21:10:07.442Z,82.73
2019-01-21T21:12:38.868Z,82.22
2019-01-21T21:15:13.514Z,81.70
2019-01-21T21:17:45.004Z,82.06
2019-01-21T21:20:16.694Z,82.13
2019-01-21T21:22:48.649Z,82.54
2019-01-21T21:25:20.499Z,83.14
2019-01-21T21:27:51.928Z,83.15
2019-01-21T21:30:28.331Z,83.18
2019-01-21T21:33:00.194Z,83.26
2019-01-21T21:35:31.469Z,82.85
2019-01-21T21:38:02.999Z,82.71
2019-01-21T21:40:34.598Z,82.98
2019-01-21T21:43:06.267Z,82.62
2019-01-21T21:45:37.940Z,82.80
2019-01-21T21:48:09.297Z,82.74
2019-01-21T21:50:41.339Z,82.78
2019-01-21T21:53:14.184Z,82.07
2019-01-21T21:55:45.671Z,82.07
2019-01-21T21:58:17.146Z,81.95
2019-01-21T22:00:48.685Z,81.81
2019-01-21T22:03:21.150Z,81.45
2019-01-21T22:05:52.453Z,81.51
2019-01-21T22:08:24.180Z,81.77
2019-01-21T22:10:55.537Z,82.73
2019-01-21T22:13:26.792Z,82.76
2019-01-21T22:15:58.388Z,83.04
2019-01-21T22:18:29.933Z,83.30
2019-01-21T22:21:02.181Z,83.75
2019-01-21T22:23:33.983Z,83.82
2019-01-21T22:26:05.563Z,83.85
2019-01-21T22:28:37.118Z,84.04
2019-01-21T22:31:08.523Z,84.02
2019-01-21T22:33:40.076Z,83.93
2019-01-21T22:36:11.909Z,83.89
2019-01-21T22:38:43.427Z,83.87
2019-01-21T22:41:15.190Z,83.70
2019-01-21T22:43:46.458Z,83.42
2019-01-21T22:46:17.915Z,83.82
2019-01-21T22:48:49.403Z,83.50
2019-01-21T22:51:21.056Z,83.17
2019-01-21T22:53:52.258Z,83.23
2019-01-21T22:56:23.863Z,83.03
2019-01-21T22:58:55.171Z,82.56
2019-01-21T23:01:32.488Z,82.61
2019-01-21T23:04:04.022Z,82.77
2019-01-21T23:06:35.345Z,82.76
2019-01-21T23:09:09.548Z,83.10
2019-01-21T23:11:41.033Z,83.60
2019-01-21T23:14:12.303Z,83.78
2019-01-21T23:16:43.621Z,83.76
2019-01-21T23:19:15.079Z,83.79
2019-01-21T23:21:46.550Z,83.90
2019-01-21T23:24:18.457Z,84.09
2019-01-21T23:26:50.128Z,84.29
2019-01-21T23:29:21.732Z,84.08
2019-01-21T23:31:52.945Z,83.40
2019-01-21T23:35:18.142Z,83.36
2019-01-21T23:37:51.246Z,83.37
2019-01-21T23:40:22.435Z,83.48
2019-01-21T23:42:53.855Z,83.43
2019-01-21T23:45:25.351Z,83.61
2019-01-21T23:47:56.537Z,83.71
2019-01-21T23:50:28.389Z,83.72
2019-01-21T23:52:59.636Z,83.69
2019-01-21T23:55:30.946Z,83.85
2019-01-21T23:58:02.481Z,84.02
